sensor_id;sensor_type;location;lat;lon;timestamp;temperature;humidity
76787;DHT22;65739;51.482;5.702;2023-02-28T00:02:50;-2.30;99.90
76787;DHT22;65739;51.482;5.702;2023-02-28T00:05:18;-2.30;99.90
76787;DHT22;65739;51.482;5.702;2023-02-28T00:07:44;-2.40;99.90
76787;DHT22;65739;51.482;5.702;2023-02-28T00:10:17;-2.40;99.90
76787;DHT22;65739;51.482;5.702;2023-02-28T00:12:59;-2.50;99.90
76787;DHT22;65739;51.482;5.702;2023-02-28T00:15:28;-2.50;99.90
76787;DHT22;65739;51.482;5.702;2023-02-28T00:17:54;-2.50;99.90
76787;DHT22;65739;51.482;5.702;2023-02-28T00:20:20;-2.40;99.90
76787;DHT22;65739;51.482;5.702;2023-02-28T00:22:58;-2.40;99.90
76787;DHT22;65739;51.482;5.702;2023-02-28T00:25:25;-2.50;99.90
76787;DHT22;65739;51.482;5.702;2023-02-28T00:27:52;-2.40;99.90
76787;DHT22;65739;51.482;5.702;2023-02-28T00:30:20;-2.30;99.90
76787;DHT22;65739;51.482;5.702;2023-02-28T00:32:46;-2.30;99.90
76787;DHT22;65739;51.482;5.702;2023-02-28T00:35:12;-2.30;99.90
76787;DHT22;65739;51.482;5.702;2023-02-28T00:37:41;-2.30;99.90
76787;DHT22;65739;51.482;5.702;2023-02-28T00:40:10;-2.30;99.90
76787;DHT22;65739;51.482;5.702;2023-02-28T00:42:39;-2.30;99.90
76787;DHT22;65739;51.482;5.702;2023-02-28T00:45:14;-2.40;99.90
76787;DHT22;65739;51.482;5.702;2023-02-28T00:47:52;-2.40;99.90
76787;DHT22;65739;51.482;5.702;2023-02-28T00:50:27;-2.50;99.90
76787;DHT22;65739;51.482;5.702;2023-02-28T00:52:56;-2.50;99.90
76787;DHT22;65739;51.482;5.702;2023-02-28T00:55:37;-2.50;99.90
76787;DHT22;65739;51.482;5.702;2023-02-28T00:58:03;-2.50;99.90
76787;DHT22;65739;51.482;5.702;2023-02-28T01:00:29;-2.60;99.90
76787;DHT22;65739;51.482;5.702;2023-02-28T01:02:55;-2.60;99.90
76787;DHT22;65739;51.482;5.702;2023-02-28T01:05:21;-2.60;99.90
76787;DHT22;65739;51.482;5.702;2023-02-28T01:07:58;-2.60;99.90
76787;DHT22;65739;51.482;5.702;2023-02-28T01:10:27;-2.70;99.90
76787;DHT22;65739;51.482;5.702;2023-02-28T01:12:56;-2.70;99.90
76787;DHT22;65739;51.482;5.702;2023-02-28T01:15:23;-2.70;99.90
76787;DHT22;65739;51.482;5.702;2023-02-28T01:17:48;-2.80;99.90
76787;DHT22;65739;51.482;5.702;2023-02-28T01:20:14;-2.80;99.90
76787;DHT22;65739;51.482;5.702;2023-02-28T01:22:40;-2.80;99.90
76787;DHT22;65739;51.482;5.702;2023-02-28T01:25:06;-2.90;99.90
76787;DHT22;65739;51.482;5.702;2023-02-28T01:27:35;-2.80;99.90
76787;DHT22;65739;51.482;5.702;2023-02-28T01:30:02;-2.80;99.90
76787;DHT22;65739;51.482;5.702;2023-02-28T01:32:28;-2.90;99.90
76787;DHT22;65739;51.482;5.702;2023-02-28T01:34:53;-3.00;99.90
76787;DHT22;65739;51.482;5.702;2023-02-28T01:37:19;-3.00;99.90
76787;DHT22;65739;51.482;5.702;2023-02-28T01:39:45;-3.00;99.90
76787;DHT22;65739;51.482;5.702;2023-02-28T01:42:19;-3.00;99.90
76787;DHT22;65739;51.482;5.702;2023-02-28T01:47:36;-3.00;99.90
76787;DHT22;65739;51.482;5.702;2023-02-28T01:50:07;-3.00;99.90
76787;DHT22;65739;51.482;5.702;2023-02-28T01:52:34;-3.00;99.90
76787;DHT22;65739;51.482;5.702;2023-02-28T01:55:04;-3.00;99.90
76787;DHT22;65739;51.482;5.702;2023-02-28T01:57:39;-3.00;99.90
76787;DHT22;65739;51.482;5.702;2023-02-28T02:00:10;-3.10;99.90
76787;DHT22;65739;51.482;5.702;2023-02-28T02:02:38;-3.00;99.90
76787;DHT22;65739;51.482;5.702;2023-02-28T02:05:11;-2.90;99.90
76787;DHT22;65739;51.482;5.702;2023-02-28T02:07:39;-2.90;99.90
76787;DHT22;65739;51.482;5.702;2023-02-28T02:10:17;-2.90;99.90
76787;DHT22;65739;51.482;5.702;2023-02-28T02:17:59;-2.70;99.90
76787;DHT22;65739;51.482;5.702;2023-02-28T02:20:45;-2.70;99.90
76787;DHT22;65739;51.482;5.702;2023-02-28T02:26:16;-2.80;99.90
76787;DHT22;65739;51.482;5.702;2023-02-28T02:32:08;-2.90;99.90
76787;DHT22;65739;51.482;5.702;2023-02-28T02:34:49;-2.90;99.90
76787;DHT22;65739;51.482;5.702;2023-02-28T02:37:31;-2.90;99.90
76787;DHT22;65739;51.482;5.702;2023-02-28T02:40:20;-2.90;99.90
76787;DHT22;65739;51.482;5.702;2023-02-28T02:43:06;-3.00;99.90
76787;DHT22;65739;51.482;5.702;2023-02-28T02:45:49;-3.00;99.90
76787;DHT22;65739;51.482;5.702;2023-02-28T02:48:20;-3.10;99.90
76787;DHT22;65739;51.482;5.702;2023-02-28T02:50:49;-3.10;99.90
76787;DHT22;65739;51.482;5.702;2023-02-28T02:53:18;-3.00;99.90
76787;DHT22;65739;51.482;5.702;2023-02-28T02:55:48;-3.00;99.90
76787;DHT22;65739;51.482;5.702;2023-02-28T02:58:24;-3.00;99.90
76787;DHT22;65739;51.482;5.702;2023-02-28T03:00:54;-3.00;99.90
76787;DHT22;65739;51.482;5.702;2023-02-28T03:03:22;-2.90;99.90
76787;DHT22;65739;51.482;5.702;2023-02-28T03:05:55;-2.90;99.90
76787;DHT22;65739;51.482;5.702;2023-02-28T03:08:21;-2.90;99.90
76787;DHT22;65739;51.482;5.702;2023-02-28T03:10:52;-2.80;99.90
76787;DHT22;65739;51.482;5.702;2023-02-28T03:13:45;-2.80;99.90
76787;DHT22;65739;51.482;5.702;2023-02-28T03:16:42;-2.70;99.90
76787;DHT22;65739;51.482;5.702;2023-02-28T03:19:37;-2.60;99.90
76787;DHT22;65739;51.482;5.702;2023-02-28T03:25:20;-2.50;99.90
76787;DHT22;65739;51.482;5.702;2023-02-28T03:27:58;-2.40;99.90
76787;DHT22;65739;51.482;5.702;2023-02-28T03:34:34;-2.20;99.90
76787;DHT22;65739;51.482;5.702;2023-02-28T03:37:26;-2.10;99.90
76787;DHT22;65739;51.482;5.702;2023-02-28T03:43:23;-1.90;99.90
76787;DHT22;65739;51.482;5.702;2023-02-28T03:45:51;-1.80;99.90
76787;DHT22;65739;51.482;5.702;2023-02-28T03:48:57;-1.70;99.90
76787;DHT22;65739;51.482;5.702;2023-02-28T03:51:28;-1.60;99.90
76787;DHT22;65739;51.482;5.702;2023-02-28T03:54:02;-1.60;99.90
76787;DHT22;65739;51.482;5.702;2023-02-28T03:56:48;-1.50;99.90
76787;DHT22;65739;51.482;5.702;2023-02-28T04:07:00;-1.40;99.90
76787;DHT22;65739;51.482;5.702;2023-02-28T04:13:06;-1.20;99.90
76787;DHT22;65739;51.482;5.702;2023-02-28T04:19:20;-1.00;99.90
76787;DHT22;65739;51.482;5.702;2023-02-28T04:22:31;-0.90;99.90
76787;DHT22;65739;51.482;5.702;2023-02-28T04:24:57;-0.90;99.90
76787;DHT22;65739;51.482;5.702;2023-02-28T04:31:19;-0.80;99.90
76787;DHT22;65739;51.482;5.702;2023-02-28T04:34:23;-0.80;99.90
76787;DHT22;65739;51.482;5.702;2023-02-28T04:36:54;-0.80;99.90
76787;DHT22;65739;51.482;5.702;2023-02-28T04:39:52;-0.80;99.90
76787;DHT22;65739;51.482;5.702;2023-02-28T04:43:05;-0.80;99.90
76787;DHT22;65739;51.482;5.702;2023-02-28T04:46:04;-0.80;99.90
76787;DHT22;65739;51.482;5.702;2023-02-28T04:55:31;-0.70;99.90
76787;DHT22;65739;51.482;5.702;2023-02-28T04:58:02;-0.70;99.90
76787;DHT22;65739;51.482;5.702;2023-02-28T05:01:05;-0.70;99.90
76787;DHT22;65739;51.482;5.702;2023-02-28T05:03:59;-0.80;99.90
76787;DHT22;65739;51.482;5.702;2023-02-28T05:17:23;-0.90;99.90
76787;DHT22;65739;51.482;5.702;2023-02-28T05:23:53;-0.90;99.90
76787;DHT22;65739;51.482;5.702;2023-02-28T05:27:00;-0.80;99.90
76787;DHT22;65739;51.482;5.702;2023-02-28T05:30:08;-0.80;99.90
76787;DHT22;65739;51.482;5.702;2023-02-28T05:36:49;-0.80;99.90
76787;DHT22;65739;51.482;5.702;2023-02-28T05:43:37;-0.80;99.90
76787;DHT22;65739;51.482;5.702;2023-02-28T05:46:30;-0.80;99.90
76787;DHT22;65739;51.482;5.702;2023-02-28T05:49:30;-0.80;99.90
76787;DHT22;65739;51.482;5.702;2023-02-28T05:55:41;-0.80;99.90
76787;DHT22;65739;51.482;5.702;2023-02-28T06:05:56;-1.00;99.90
76787;DHT22;65739;51.482;5.702;2023-02-28T06:08:24;-1.00;99.90
76787;DHT22;65739;51.482;5.702;2023-02-28T06:10:56;-1.00;99.90
76787;DHT22;65739;51.482;5.702;2023-02-28T06:13:23;-1.00;99.90
76787;DHT22;65739;51.482;5.702;2023-02-28T06:16:30;-0.90;99.90
76787;DHT22;65739;51.482;5.702;2023-02-28T06:19:10;-0.90;99.90
76787;DHT22;65739;51.482;5.702;2023-02-28T06:21:44;-0.90;99.90
76787;DHT22;65739;51.482;5.702;2023-02-28T06:24:26;-1.00;99.90
76787;DHT22;65739;51.482;5.702;2023-02-28T06:30:17;-1.00;99.90
76787;DHT22;65739;51.482;5.702;2023-02-28T06:33:52;-1.10;99.90
76787;DHT22;65739;51.482;5.702;2023-02-28T06:36:15;-1.10;99.90
76787;DHT22;65739;51.482;5.702;2023-02-28T06:38:48;-1.10;99.90
76787;DHT22;65739;51.482;5.702;2023-02-28T06:41:24;-1.20;99.90
76787;DHT22;65739;51.482;5.702;2023-02-28T06:43:50;-1.30;99.90
76787;DHT22;65739;51.482;5.702;2023-02-28T06:46:16;-1.40;99.90
76787;DHT22;65739;51.482;5.702;2023-02-28T06:48:45;-1.40;99.90
76787;DHT22;65739;51.482;5.702;2023-02-28T06:51:21;-1.30;99.90
76787;DHT22;65739;51.482;5.702;2023-02-28T06:53:48;-1.40;99.90
76787;DHT22;65739;51.482;5.702;2023-02-28T06:56:15;-1.40;99.90
76787;DHT22;65739;51.482;5.702;2023-02-28T06:58:42;-1.40;99.90
76787;DHT22;65739;51.482;5.702;2023-02-28T07:01:08;-1.40;99.90
76787;DHT22;65739;51.482;5.702;2023-02-28T07:03:40;-1.30;99.90
76787;DHT22;65739;51.482;5.702;2023-02-28T07:06:07;-1.20;99.90
76787;DHT22;65739;51.482;5.702;2023-02-28T07:08:42;-1.10;99.90
76787;DHT22;65739;51.482;5.702;2023-02-28T07:11:08;-1.00;99.90
76787;DHT22;65739;51.482;5.702;2023-02-28T07:13:57;-0.90;99.90
76787;DHT22;65739;51.482;5.702;2023-02-28T07:16:41;-0.80;99.90
76787;DHT22;65739;51.482;5.702;2023-02-28T07:19:10;-0.60;99.90
76787;DHT22;65739;51.482;5.702;2023-02-28T07:24:52;-0.50;99.90
76787;DHT22;65739;51.482;5.702;2023-02-28T07:27:38;-0.40;99.90
76787;DHT22;65739;51.482;5.702;2023-02-28T07:30:26;-0.40;99.90
76787;DHT22;65739;51.482;5.702;2023-02-28T07:33:21;-0.30;99.90
76787;DHT22;65739;51.482;5.702;2023-02-28T07:36:56;-0.10;99.90
76787;DHT22;65739;51.482;5.702;2023-02-28T07:39:09;0.00;99.90
76787;DHT22;65739;51.482;5.702;2023-02-28T07:41:38;0.00;99.90
76787;DHT22;65739;51.482;5.702;2023-02-28T07:44:11;0.00;99.90
76787;DHT22;65739;51.482;5.702;2023-02-28T07:46:41;0.00;99.90
76787;DHT22;65739;51.482;5.702;2023-02-28T07:49:10;0.10;99.90
76787;DHT22;65739;51.482;5.702;2023-02-28T07:51:35;0.20;99.90
76787;DHT22;65739;51.482;5.702;2023-02-28T07:54:04;0.20;99.90
76787;DHT22;65739;51.482;5.702;2023-02-28T07:56:30;0.30;99.90
76787;DHT22;65739;51.482;5.702;2023-02-28T07:58:59;0.30;99.90
76787;DHT22;65739;51.482;5.702;2023-02-28T08:01:40;0.50;99.90
76787;DHT22;65739;51.482;5.702;2023-02-28T08:04:16;0.70;99.90
76787;DHT22;65739;51.482;5.702;2023-02-28T08:07:00;0.80;99.90
76787;DHT22;65739;51.482;5.702;2023-02-28T08:09:50;1.10;99.90
76787;DHT22;65739;51.482;5.702;2023-02-28T08:19:49;1.20;99.90
76787;DHT22;65739;51.482;5.702;2023-02-28T08:22:28;1.50;99.90
76787;DHT22;65739;51.482;5.702;2023-02-28T08:24:55;1.70;99.90
76787;DHT22;65739;51.482;5.702;2023-02-28T08:27:23;1.90;99.90
76787;DHT22;65739;51.482;5.702;2023-02-28T08:29:58;2.00;99.90
76787;DHT22;65739;51.482;5.702;2023-02-28T08:32:24;2.10;99.90
76787;DHT22;65739;51.482;5.702;2023-02-28T08:34:51;2.20;99.90
76787;DHT22;65739;51.482;5.702;2023-02-28T08:41:10;2.40;99.90
76787;DHT22;65739;51.482;5.702;2023-02-28T08:43:36;2.60;99.90
76787;DHT22;65739;51.482;5.702;2023-02-28T08:46:06;2.60;99.90
76787;DHT22;65739;51.482;5.702;2023-02-28T08:52:25;2.70;99.90
76787;DHT22;65739;51.482;5.702;2023-02-28T08:55:27;2.80;99.90
76787;DHT22;65739;51.482;5.702;2023-02-28T08:57:56;2.90;99.90
76787;DHT22;65739;51.482;5.702;2023-02-28T09:00:35;2.90;99.90
76787;DHT22;65739;51.482;5.702;2023-02-28T09:03:21;3.00;99.90
76787;DHT22;65739;51.482;5.702;2023-02-28T09:05:56;3.10;99.90
76787;DHT22;65739;51.482;5.702;2023-02-28T09:11:51;3.20;99.90
76787;DHT22;65739;51.482;5.702;2023-02-28T09:14:16;3.20;99.90
76787;DHT22;65739;51.482;5.702;2023-02-28T09:16:45;3.40;99.90
76787;DHT22;65739;51.482;5.702;2023-02-28T09:19:13;3.50;99.90
76787;DHT22;65739;51.482;5.702;2023-02-28T09:21:40;3.50;99.90
76787;DHT22;65739;51.482;5.702;2023-02-28T09:24:12;3.50;99.90
76787;DHT22;65739;51.482;5.702;2023-02-28T09:26:49;3.80;99.90
76787;DHT22;65739;51.482;5.702;2023-02-28T09:29:47;3.80;99.90
76787;DHT22;65739;51.482;5.702;2023-02-28T09:32:28;3.90;99.90
76787;DHT22;65739;51.482;5.702;2023-02-28T09:35:00;4.00;99.90
76787;DHT22;65739;51.482;5.702;2023-02-28T09:40:34;4.00;99.90
76787;DHT22;65739;51.482;5.702;2023-02-28T09:43:11;4.00;99.90
76787;DHT22;65739;51.482;5.702;2023-02-28T09:48:44;4.20;99.90
76787;DHT22;65739;51.482;5.702;2023-02-28T09:53:58;4.40;99.90
76787;DHT22;65739;51.482;5.702;2023-02-28T09:56:39;4.40;99.90
76787;DHT22;65739;51.482;5.702;2023-02-28T10:07:32;4.70;99.90
76787;DHT22;65739;51.482;5.702;2023-02-28T10:09:25;4.70;99.90
76787;DHT22;65739;51.482;5.702;2023-02-28T10:12:00;5.00;99.90
76787;DHT22;65739;51.482;5.702;2023-02-28T10:14:37;4.90;99.90
76787;DHT22;65739;51.482;5.702;2023-02-28T10:17:36;5.00;99.90
76787;DHT22;65739;51.482;5.702;2023-02-28T10:20:28;4.80;99.90
76787;DHT22;65739;51.482;5.702;2023-02-28T10:23:11;5.00;99.90
76787;DHT22;65739;51.482;5.702;2023-02-28T10:26:05;5.10;99.90
76787;DHT22;65739;51.482;5.702;2023-02-28T10:28:30;5.30;99.90
76787;DHT22;65739;51.482;5.702;2023-02-28T10:30:57;5.20;99.90
76787;DHT22;65739;51.482;5.702;2023-02-28T10:36:18;5.60;99.90
76787;DHT22;65739;51.482;5.702;2023-02-28T10:38:48;5.60;99.90
76787;DHT22;65739;51.482;5.702;2023-02-28T10:41:16;5.70;99.90
76787;DHT22;65739;51.482;5.702;2023-02-28T10:43:45;5.60;99.90
76787;DHT22;65739;51.482;5.702;2023-02-28T10:46:16;5.70;99.90
76787;DHT22;65739;51.482;5.702;2023-02-28T10:49:20;5.90;99.90
76787;DHT22;65739;51.482;5.702;2023-02-28T10:51:57;6.10;99.90
76787;DHT22;65739;51.482;5.702;2023-02-28T10:54:36;6.20;99.90
76787;DHT22;65739;51.482;5.702;2023-02-28T10:57:41;6.40;99.90
76787;DHT22;65739;51.482;5.702;2023-02-28T11:00:18;6.60;99.90
76787;DHT22;65739;51.482;5.702;2023-02-28T11:02:48;6.70;99.90
76787;DHT22;65739;51.482;5.702;2023-02-28T11:05:35;6.70;99.90
76787;DHT22;65739;51.482;5.702;2023-02-28T11:08:15;6.70;99.90
76787;DHT22;65739;51.482;5.702;2023-02-28T11:11:04;6.60;99.90
76787;DHT22;65739;51.482;5.702;2023-02-28T11:13:36;6.70;99.90
76787;DHT22;65739;51.482;5.702;2023-02-28T11:16:06;6.80;99.90
76787;DHT22;65739;51.482;5.702;2023-02-28T11:21:02;7.40;99.90
76787;DHT22;65739;51.482;5.702;2023-02-28T11:23:30;7.30;99.90
76787;DHT22;65739;51.482;5.702;2023-02-28T11:26:03;7.30;99.90
76787;DHT22;65739;51.482;5.702;2023-02-28T11:28:32;7.60;99.90
76787;DHT22;65739;51.482;5.702;2023-02-28T11:33:55;7.50;99.90
76787;DHT22;65739;51.482;5.702;2023-02-28T11:36:30;7.60;99.90
76787;DHT22;65739;51.482;5.702;2023-02-28T11:38:59;7.50;99.40
76787;DHT22;65739;51.482;5.702;2023-02-28T11:41:35;7.40;99.90
76787;DHT22;65739;51.482;5.702;2023-02-28T11:47:02;7.60;99.80
76787;DHT22;65739;51.482;5.702;2023-02-28T11:52:45;8.30;99.80
76787;DHT22;65739;51.482;5.702;2023-02-28T11:55:37;8.00;99.40
76787;DHT22;65739;51.482;5.702;2023-02-28T11:58:14;7.30;99.00
76787;DHT22;65739;51.482;5.702;2023-02-28T12:08:47;7.80;99.50
76787;DHT22;65739;51.482;5.702;2023-02-28T12:11:37;7.80;99.30
76787;DHT22;65739;51.482;5.702;2023-02-28T12:20:34;8.50;99.90
76787;DHT22;65739;51.482;5.702;2023-02-28T12:25:46;8.50;98.80
76787;DHT22;65739;51.482;5.702;2023-02-28T12:28:16;8.40;98.80
76787;DHT22;65739;51.482;5.702;2023-02-28T12:31:05;8.50;98.10
76787;DHT22;65739;51.482;5.702;2023-02-28T12:33:46;8.20;98.10
76787;DHT22;65739;51.482;5.702;2023-02-28T12:36:17;8.00;98.50
76787;DHT22;65739;51.482;5.702;2023-02-28T12:38:56;7.90;98.30
76787;DHT22;65739;51.482;5.702;2023-02-28T12:44:19;8.00;98.80
76787;DHT22;65739;51.482;5.702;2023-02-28T12:47:02;8.10;99.70
76787;DHT22;65739;51.482;5.702;2023-02-28T12:49:46;8.00;98.30
76787;DHT22;65739;51.482;5.702;2023-02-28T12:52:19;8.40;98.60
76787;DHT22;65739;51.482;5.702;2023-02-28T12:55:06;8.40;98.50
76787;DHT22;65739;51.482;5.702;2023-02-28T12:58:01;8.70;98.40
76787;DHT22;65739;51.482;5.702;2023-02-28T13:06:33;8.50;98.20
76787;DHT22;65739;51.482;5.702;2023-02-28T13:09:15;8.40;98.40
76787;DHT22;65739;51.482;5.702;2023-02-28T13:11:45;8.50;98.00
76787;DHT22;65739;51.482;5.702;2023-02-28T13:17:21;8.10;98.00
76787;DHT22;65739;51.482;5.702;2023-02-28T13:31:29;8.70;97.90
76787;DHT22;65739;51.482;5.702;2023-02-28T13:36:31;9.10;97.80
76787;DHT22;65739;51.482;5.702;2023-02-28T13:39:02;9.40;98.10
76787;DHT22;65739;51.482;5.702;2023-02-28T13:44:06;9.50;97.30
76787;DHT22;65739;51.482;5.702;2023-02-28T13:49:26;9.10;97.60
76787;DHT22;65739;51.482;5.702;2023-02-28T14:09:23;8.50;98.60
76787;DHT22;65739;51.482;5.702;2023-02-28T14:11:49;8.30;99.00
76787;DHT22;65739;51.482;5.702;2023-02-28T14:17:07;8.10;98.90
76787;DHT22;65739;51.482;5.702;2023-02-28T14:19:37;8.20;99.00
76787;DHT22;65739;51.482;5.702;2023-02-28T14:31:53;7.90;99.10
76787;DHT22;65739;51.482;5.702;2023-02-28T14:37:29;7.90;99.50
76787;DHT22;65739;51.482;5.702;2023-02-28T14:39:57;7.70;98.60
76787;DHT22;65739;51.482;5.702;2023-02-28T14:42:33;7.80;99.30
76787;DHT22;65739;51.482;5.702;2023-02-28T14:44:59;7.80;99.30
76787;DHT22;65739;51.482;5.702;2023-02-28T14:47:31;7.70;98.80
76787;DHT22;65739;51.482;5.702;2023-02-28T14:53:43;7.60;99.10
76787;DHT22;65739;51.482;5.702;2023-02-28T14:56:23;7.70;99.30
76787;DHT22;65739;51.482;5.702;2023-02-28T14:59:24;7.90;99.10
76787;DHT22;65739;51.482;5.702;2023-02-28T15:01:50;7.70;98.30
76787;DHT22;65739;51.482;5.702;2023-02-28T15:04:25;7.60;99.20
76787;DHT22;65739;51.482;5.702;2023-02-28T15:07:09;7.80;99.40
76787;DHT22;65739;51.482;5.702;2023-02-28T15:09:38;7.80;99.30
76787;DHT22;65739;51.482;5.702;2023-02-28T15:12:15;7.80;99.10
76787;DHT22;65739;51.482;5.702;2023-02-28T15:14:43;7.90;99.60
76787;DHT22;65739;51.482;5.702;2023-02-28T15:17:20;7.90;99.30
76787;DHT22;65739;51.482;5.702;2023-02-28T15:19:52;7.90;99.00
76787;DHT22;65739;51.482;5.702;2023-02-28T15:25:26;8.00;99.40
76787;DHT22;65739;51.482;5.702;2023-02-28T15:27:55;7.80;99.00
76787;DHT22;65739;51.482;5.702;2023-02-28T15:30:28;7.80;99.70
76787;DHT22;65739;51.482;5.702;2023-02-28T15:35:43;7.80;99.50
76787;DHT22;65739;51.482;5.702;2023-02-28T15:38:27;7.90;99.40
76787;DHT22;65739;51.482;5.702;2023-02-28T15:40:55;7.70;99.50
76787;DHT22;65739;51.482;5.702;2023-02-28T15:43:32;7.50;99.90
76787;DHT22;65739;51.482;5.702;2023-02-28T15:51:42;7.50;99.90
76787;DHT22;65739;51.482;5.702;2023-02-28T15:54:14;7.60;99.90
76787;DHT22;65739;51.482;5.702;2023-02-28T15:56:56;7.60;99.90
76787;DHT22;65739;51.482;5.702;2023-02-28T15:59:27;7.40;99.90
76787;DHT22;65739;51.482;5.702;2023-02-28T16:02:14;7.30;99.90
76787;DHT22;65739;51.482;5.702;2023-02-28T16:07:38;7.20;99.90
76787;DHT22;65739;51.482;5.702;2023-02-28T16:10:08;7.10;99.90
76787;DHT22;65739;51.482;5.702;2023-02-28T16:12:38;7.00;99.90
76787;DHT22;65739;51.482;5.702;2023-02-28T16:15:19;6.90;99.90
76787;DHT22;65739;51.482;5.702;2023-02-28T16:17:46;6.70;99.90
76787;DHT22;65739;51.482;5.702;2023-02-28T16:20:17;6.50;99.90
76787;DHT22;65739;51.482;5.702;2023-02-28T16:22:43;6.20;99.90
76787;DHT22;65739;51.482;5.702;2023-02-28T16:25:16;6.10;99.90
76787;DHT22;65739;51.482;5.702;2023-02-28T16:27:42;5.90;99.90
76787;DHT22;65739;51.482;5.702;2023-02-28T16:30:14;5.70;99.90
76787;DHT22;65739;51.482;5.702;2023-02-28T16:32:41;5.60;99.90
76787;DHT22;65739;51.482;5.702;2023-02-28T16:35:09;5.50;99.90
76787;DHT22;65739;51.482;5.702;2023-02-28T16:37:39;5.40;99.90
76787;DHT22;65739;51.482;5.702;2023-02-28T16:43:47;5.30;99.90
76787;DHT22;65739;51.482;5.702;2023-02-28T16:46:08;5.20;99.90
76787;DHT22;65739;51.482;5.702;2023-02-28T16:48:35;5.10;99.90
76787;DHT22;65739;51.482;5.702;2023-02-28T16:51:01;4.90;99.90
76787;DHT22;65739;51.482;5.702;2023-02-28T16:53:35;4.90;99.90
76787;DHT22;65739;51.482;5.702;2023-02-28T16:56:04;4.80;99.90
76787;DHT22;65739;51.482;5.702;2023-02-28T16:58:32;4.70;99.90
76787;DHT22;65739;51.482;5.702;2023-02-28T17:01:01;4.70;99.90
76787;DHT22;65739;51.482;5.702;2023-02-28T17:03:30;4.60;99.90
76787;DHT22;65739;51.482;5.702;2023-02-28T17:08:41;4.40;99.90
76787;DHT22;65739;51.482;5.702;2023-02-28T17:11:15;4.30;99.90
76787;DHT22;65739;51.482;5.702;2023-02-28T17:13:44;4.20;99.90
76787;DHT22;65739;51.482;5.702;2023-02-28T17:16:32;4.10;99.90
76787;DHT22;65739;51.482;5.702;2023-02-28T17:19:00;4.10;99.90
76787;DHT22;65739;51.482;5.702;2023-02-28T17:21:39;3.90;99.90
76787;DHT22;65739;51.482;5.702;2023-02-28T17:26:56;3.80;99.90
76787;DHT22;65739;51.482;5.702;2023-02-28T17:29:27;3.70;99.90
76787;DHT22;65739;51.482;5.702;2023-02-28T17:31:55;3.60;99.90
76787;DHT22;65739;51.482;5.702;2023-02-28T17:34:21;3.40;99.90
76787;DHT22;65739;51.482;5.702;2023-02-28T17:36:50;3.30;99.90
76787;DHT22;65739;51.482;5.702;2023-02-28T17:39:31;3.20;99.90
76787;DHT22;65739;51.482;5.702;2023-02-28T17:42:12;3.10;99.90
76787;DHT22;65739;51.482;5.702;2023-02-28T17:44:44;3.00;99.90
76787;DHT22;65739;51.482;5.702;2023-02-28T17:47:36;2.90;99.90
76787;DHT22;65739;51.482;5.702;2023-02-28T17:50:14;2.80;99.90
76787;DHT22;65739;51.482;5.702;2023-02-28T17:53:03;2.70;99.90
76787;DHT22;65739;51.482;5.702;2023-02-28T17:58:56;2.50;99.90
76787;DHT22;65739;51.482;5.702;2023-02-28T18:01:30;2.40;99.90
76787;DHT22;65739;51.482;5.702;2023-02-28T18:04:42;2.30;99.90
76787;DHT22;65739;51.482;5.702;2023-02-28T18:06:48;2.10;99.90
76787;DHT22;65739;51.482;5.702;2023-02-28T18:12:04;1.90;99.90
76787;DHT22;65739;51.482;5.702;2023-02-28T18:14:30;1.80;99.90
76787;DHT22;65739;51.482;5.702;2023-02-28T18:20:11;1.60;99.90
76787;DHT22;65739;51.482;5.702;2023-02-28T18:22:58;1.50;99.90
76787;DHT22;65739;51.482;5.702;2023-02-28T18:25:26;1.40;99.90
76787;DHT22;65739;51.482;5.702;2023-02-28T18:30:30;1.20;99.90
76787;DHT22;65739;51.482;5.702;2023-02-28T18:32:57;1.20;99.90
76787;DHT22;65739;51.482;5.702;2023-02-28T18:38:31;1.00;99.90
76787;DHT22;65739;51.482;5.702;2023-02-28T18:40:58;0.90;99.90
76787;DHT22;65739;51.482;5.702;2023-02-28T18:43:27;0.80;99.90
76787;DHT22;65739;51.482;5.702;2023-02-28T18:46:23;0.70;99.90
76787;DHT22;65739;51.482;5.702;2023-02-28T18:49:04;0.70;99.90
76787;DHT22;65739;51.482;5.702;2023-02-28T18:51:30;0.60;99.90
76787;DHT22;65739;51.482;5.702;2023-02-28T18:54:13;0.60;99.90
76787;DHT22;65739;51.482;5.702;2023-02-28T18:56:44;0.60;99.90
76787;DHT22;65739;51.482;5.702;2023-02-28T18:59:10;0.50;99.90
76787;DHT22;65739;51.482;5.702;2023-02-28T19:01:42;0.50;99.90
76787;DHT22;65739;51.482;5.702;2023-02-28T19:04:11;0.40;99.90
76787;DHT22;65739;51.482;5.702;2023-02-28T19:06:40;0.40;99.90
76787;DHT22;65739;51.482;5.702;2023-02-28T19:09:06;0.40;99.90
76787;DHT22;65739;51.482;5.702;2023-02-28T19:11:32;0.30;99.90
76787;DHT22;65739;51.482;5.702;2023-02-28T19:14:01;0.30;99.90
76787;DHT22;65739;51.482;5.702;2023-02-28T19:19:27;0.20;99.90
76787;DHT22;65739;51.482;5.702;2023-02-28T19:24:28;0.10;99.90
76787;DHT22;65739;51.482;5.702;2023-02-28T19:26:54;0.10;99.90
76787;DHT22;65739;51.482;5.702;2023-02-28T19:29:23;0.00;99.90
76787;DHT22;65739;51.482;5.702;2023-02-28T19:31:49;0.00;99.90
76787;DHT22;65739;51.482;5.702;2023-02-28T19:34:40;-0.10;99.90
76787;DHT22;65739;51.482;5.702;2023-02-28T19:37:03;-0.10;99.90
76787;DHT22;65739;51.482;5.702;2023-02-28T19:39:38;-0.10;99.90
76787;DHT22;65739;51.482;5.702;2023-02-28T19:42:45;-0.20;99.90
76787;DHT22;65739;51.482;5.702;2023-02-28T19:48:02;-0.30;99.90
76787;DHT22;65739;51.482;5.702;2023-02-28T19:50:28;-0.40;99.90
76787;DHT22;65739;51.482;5.702;2023-02-28T19:52:54;-0.40;99.90
76787;DHT22;65739;51.482;5.702;2023-02-28T19:55:20;-0.40;99.90
76787;DHT22;65739;51.482;5.702;2023-02-28T20:00:53;-0.50;99.90
76787;DHT22;65739;51.482;5.702;2023-02-28T20:03:19;-0.50;99.90
76787;DHT22;65739;51.482;5.702;2023-02-28T20:05:45;-0.60;99.90
76787;DHT22;65739;51.482;5.702;2023-02-28T20:08:11;-0.60;99.90
76787;DHT22;65739;51.482;5.702;2023-02-28T20:10:37;-0.70;99.90
76787;DHT22;65739;51.482;5.702;2023-02-28T20:13:05;-0.70;99.90
76787;DHT22;65739;51.482;5.702;2023-02-28T20:15:35;-0.80;99.90
76787;DHT22;65739;51.482;5.702;2023-02-28T20:18:01;-0.80;99.90
76787;DHT22;65739;51.482;5.702;2023-02-28T20:20:30;-0.80;99.90
76787;DHT22;65739;51.482;5.702;2023-02-28T20:23:03;-0.80;99.90
76787;DHT22;65739;51.482;5.702;2023-02-28T20:25:29;-0.80;99.90
76787;DHT22;65739;51.482;5.702;2023-02-28T20:27:56;-0.90;99.90
76787;DHT22;65739;51.482;5.702;2023-02-28T20:30:24;-0.90;99.90
76787;DHT22;65739;51.482;5.702;2023-02-28T20:32:50;-0.90;99.90
76787;DHT22;65739;51.482;5.702;2023-02-28T20:35:25;-1.00;99.90
76787;DHT22;65739;51.482;5.702;2023-02-28T20:37:50;-0.90;99.90
76787;DHT22;65739;51.482;5.702;2023-02-28T20:40:23;-1.00;99.90
76787;DHT22;65739;51.482;5.702;2023-02-28T20:42:49;-1.00;99.90
76787;DHT22;65739;51.482;5.702;2023-02-28T20:51:03;-1.10;99.90
76787;DHT22;65739;51.482;5.702;2023-02-28T20:53:32;-1.10;99.90
76787;DHT22;65739;51.482;5.702;2023-02-28T20:56:06;-1.20;99.90
76787;DHT22;65739;51.482;5.702;2023-02-28T20:58:41;-1.20;99.90
76787;DHT22;65739;51.482;5.702;2023-02-28T21:01:28;-1.20;99.90
76787;DHT22;65739;51.482;5.702;2023-02-28T21:03:58;-1.20;99.90
76787;DHT22;65739;51.482;5.702;2023-02-28T21:06:27;-1.20;99.90
76787;DHT22;65739;51.482;5.702;2023-02-28T21:08:53;-1.30;99.90